LFPM 271630Z AUTO 24010KT 220V280 9999 FEW046 BKN084 OVC100 16/09 Q1018

Les avions qui composent notre flotte

Avion JODEL D112

Avion de balade

F-BHCK


F-BHCK Planche